Impacts TAF Board
For situational awareness. Not to be used for flight planning purposes.
IDs:

KCLT - Charlotte/Douglas In, NC, US

Issued at 2157 UTC 21 Sep 2021
Updated at 2300 UTC 21 Sep 2021
Potential Impact None Slight Moderate High
Time2252Z 21/23Z 22/00Z 22/01Z 22/02Z 22/03Z 22/04Z 22/05Z 22/06Z 22/07Z 22/08Z 22/09Z 22/10Z 22/11Z>>
Type OBS PRVL PRVL PRVL PRVL PRVL PRVL PRVL PRVL PRVL PRVL PRVL PRVL PRVL
VIS 10 >6 >6 >6 4 4 4 4 4 4 4 4 4 4
CIG 9 13 13 13 4 4 4 4 4 4 4 4 4 4
Cover BKN OVC OVC OVC OVC OVC OVC OVC OVC OVC OVC OVC OVC OVC
FltCat IFR MVFR MVFR MVFR LIFR LIFR LIFR LIFR LIFR LIFR LIFR LIFR LIFR LIFR
WX -- VCSH VCSH VCSH BR VCSH BR VCSH BR VCSH BR VCSH BR VCSH BR VCSH BR VCSH BR VCSH BR VCSH BR VCSH
WDir VRB 60 60 60 120 120 120 120 120 120 160 160 160 160
WSpd 5 6 6 6 5 5 5 5 5 5 4 4 4 4
WGst -- -- -- -- -- -- -- -- -- -- -- -- -- --
Raw TAF
KCLT 212157Z 2122/2224 06006KT P6SM VCSH SCT007 OVC013
  FM220200 12005KT 4SM BR VCSH OVC004
  FM220800 16004KT 4SM BR VCSH OVC004
  FM221500 19007KT P6SM VCSH BKN015
  FM221900 21009KT 6SM SHRA BR BKN024
  PROB30 2219/2224 3SM TSRA BR OVC015CB


Raw METAR
KCLT 212252Z VRB05KT 10SM BKN009 BKN022 BKN045 BKN200 23/22 A3008 RMK AO2 SLP177 T02330217 $
KCLT 212215Z 06005KT 10SM SCT008 BKN017 BKN050 23/22 A3008 RMK AO2 T02330217 $
KCLT 212152Z 06006KT 9SM SCT008 BKN012 OVC050 23/22 A3008 RMK AO2 RAE2054 SLP178 P0000 T02330217 $
KCLT 212126Z VRB06KT 9SM SCT008 OVC012 23/22 A3008 RMK AO2 RAE2054 P0000 T02280217 $
KCLT 212116Z 07008KT 7SM BKN008 OVC013 23/22 A3008 RMK AO2 RAE2054 P0000 T02330217 $
KCLT 212052Z VRB05KT 6SM -RA BR OVC006 23/22 A3009 RMK AO2 CIG 005V011 SLP182 P0002 60002 T02280217 58008 $
KCLT 211952Z 06005KT 4SM RA BR OVC007 23/21 A3010 RMK AO2 RAB1857E09B33 SLP185 T02280211 PNO

METAR Board
Radar Display
Forecast Discussion
For situational awareness. Not to be used for flight planning purposes.